Time;durP1;ratioP1;P1;durP2;ratioP2;P2;SDS_P1;SDS_P2;PMS_P1;PMS_P2;Temp;Humidity;BMP_temperature;BMP_pressure;BME280_temperature;BME280_humidity;BME280_pressure;Samples;Min_cycle;Max_cycle;Signal;HPM_P1;HPM_P2
2024/01/05 00:01:50;;;;;;;67.50;18.80;;;;;;;7.18;82.11;98487.78;5071779;28;20044;-75
2024/01/05 00:04:16;;;;;;;52.67;17.45;;;;;;;7.19;82.10;98485.97;5071635;28;20048;-74
2024/01/05 00:06:43;;;;;;;63.63;16.88;;;;;;;7.17;82.27;98502.63;5071296;28;20103;-74
2024/01/05 00:09:10;;;;;;;43.17;16.38;;;;;;;7.17;82.08;98492.16;5563131;22;20034;-81
2024/01/05 00:11:37;;;;;;;41.78;16.60;;;;;;;7.16;81.97;98493.09;5070112;28;20167;-81
2024/01/05 00:14:03;;;;;;;26.48;15.77;;;;;;;7.15;82.17;98483.56;5070963;28;20040;-84
2024/01/05 00:16:30;;;;;;;41.70;16.92;;;;;;;7.15;82.17;98482.72;5070469;28;20044;-85
2024/01/05 00:18:56;;;;;;;31.88;16.42;;;;;;;7.14;81.99;98481.06;5070451;28;20076;-80
2024/01/05 00:21:25;;;;;;;39.33;16.77;;;;;;;7.13;82.05;98482.81;5071112;28;20144;-81
2024/01/05 00:23:54;;;;;;;23.38;16.13;;;;;;;7.11;82.02;98465.53;5070990;28;20052;-83
2024/01/05 00:26:21;;;;;;;24.60;14.77;;;;;;;7.10;81.97;98462.06;5070702;28;20055;-83
2024/01/05 00:28:48;;;;;;;22.40;14.93;;;;;;;7.10;82.50;98456.84;5070220;28;20052;-83
2024/01/05 00:31:16;;;;;;;25.80;15.13;;;;;;;7.10;82.44;98456.84;5052855;28;20094;-82
2024/01/05 00:33:43;;;;;;;22.73;14.18;;;;;;;7.10;82.54;98458.63;5070904;28;20103;-81
2024/01/05 00:36:11;;;;;;;43.83;13.75;;;;;;;7.11;82.58;98444.59;5053206;28;20103;-83
2024/01/05 00:38:38;;;;;;;18.33;12.75;;;;;;;7.11;82.58;98442.81;5070533;28;20045;-83
2024/01/05 00:41:05;;;;;;;19.95;13.25;;;;;;;7.13;82.23;98440.94;5070587;28;20044;-84
2024/01/05 00:43:32;;;;;;;21.08;13.35;;;;;;;7.14;82.58;98441.81;5070717;28;20084;-82
2024/01/05 00:45:58;;;;;;;22.35;13.50;;;;;;;7.14;82.26;98434.78;5070814;28;20056;-82
2024/01/05 00:48:25;;;;;;;19.45;12.38;;;;;;;7.13;82.57;98422.63;5052395;28;20467;-82
2024/01/05 00:50:51;;;;;;;16.85;12.18;;;;;;;7.15;82.51;98420.75;5070852;28;20044;-82
2024/01/05 00:53:18;;;;;;;21.65;13.60;;;;;;;7.16;82.82;98417.22;5070913;28;20072;-82
2024/01/05 00:55:44;;;;;;;18.13;13.15;;;;;;;7.18;82.78;98404.03;5070216;28;20048;-82
2024/01/05 00:58:11;;;;;;;19.52;12.80;;;;;;;7.19;82.38;98405.69;5052802;28;20462;-83
2024/01/05 01:00:37;;;;;;;17.65;11.75;;;;;;;7.19;82.86;98397.00;5070199;28;20048;-80
2024/01/05 01:03:04;;;;;;;20.30;12.55;;;;;;;7.19;82.41;98400.47;5070349;28;20075;-81
2024/01/05 01:05:31;;;;;;;20.85;13.25;;;;;;;7.20;82.73;98402.13;5053138;28;20056;-83
2024/01/05 01:07:58;;;;;;;17.25;12.07;;;;;;;7.21;82.69;98403.00;5053087;28;20045;-82
2024/01/05 01:10:24;;;;;;;19.75;12.70;;;;;;;7.21;83.05;98409.03;5070854;28;20095;-82
2024/01/05 01:12:51;;;;;;;31.25;12.48;;;;;;;7.24;82.56;98400.16;5070152;28;20489;-81
2024/01/05 01:15:17;;;;;;;19.27;12.75;;;;;;;7.25;82.41;98391.38;5070311;28;20127;-84
2024/01/05 01:17:44;;;;;;;17.98;12.43;;;;;;;7.25;82.47;98394.00;5070892;28;20044;-83
2024/01/05 01:20:10;;;;;;;17.73;11.88;;;;;;;7.26;82.46;98387.81;5070418;28;20489;-84
2024/01/05 01:22:37;;;;;;;17.88;11.95;;;;;;;7.25;82.29;98386.97;5070764;28;20080;-80
2024/01/05 01:25:04;;;;;;;16.75;11.63;;;;;;;7.25;82.12;98378.28;5070070;28;20067;-82
2024/01/05 01:27:31;;;;;;;16.95;12.40;;;;;;;7.25;82.49;98370.44;5070518;28;20052;-82
2024/01/05 01:29:57;;;;;;;14.32;11.25;;;;;;;7.24;82.31;98366.97;5070554;28;20087;-81
2024/01/05 01:32:24;;;;;;;16.48;11.27;;;;;;;7.24;82.31;98360.88;5070643;28;20052;-82
2024/01/05 01:34:51;;;;;;;15.35;11.07;;;;;;;7.23;82.14;98365.31;5070648;28;20080;-82
2024/01/05 01:37:17;;;;;;;15.05;11.25;;;;;;;7.23;82.72;98361.84;5069972;28;20131;-82
2024/01/05 01:39:44;;;;;;;16.20;10.98;;;;;;;7.22;82.44;98355.75;5070384;28;20139;-82
2024/01/05 01:42:11;;;;;;;17.63;10.57;;;;;;;7.22;82.37;98347.91;5070375;28;20488;-82
2024/01/05 01:44:37;;;;;;;14.48;10.00;;;;;;;7.23;82.59;98343.53;5070436;28;20060;-83
2024/01/05 01:47:05;;;;;;;18.70;11.48;;;;;;;7.24;82.39;98347.81;5069589;28;20563;-84
2024/01/05 01:49:31;;;;;;;14.70;10.38;;;;;;;7.23;82.27;98340.91;5070247;28;20045;-82
2024/01/05 01:51:58;;;;;;;20.52;12.02;;;;;;;7.23;82.70;98335.66;5052609;28;20060;-82
2024/01/05 01:54:27;;;;;;;16.10;10.52;;;;;;;7.23;82.47;98333.91;5052426;28;20044;-82
2024/01/05 01:56:56;;;;;;;16.60;11.25;;;;;;;7.23;82.69;98330.44;5052552;28;20432;-81
2024/01/05 01:59:23;;;;;;;15.82;11.30;;;;;;;7.24;82.55;98324.25;5069676;28;20540;-83
2024/01/05 02:01:50;;;;;;;19.30;12.32;;;;;;;7.25;82.75;98328.56;5069988;28;20049;-85
2024/01/05 02:04:19;;;;;;;18.98;11.63;;;;;;;7.25;82.56;98318.09;5069975;28;20493;-82
2024/01/05 02:06:46;;;;;;;21.60;11.85;;;;;;;7.26;82.74;98317.16;5053878;28;20051;-83
2024/01/05 02:09:13;;;;;;;17.60;11.88;;;;;;;7.28;82.75;98317.88;5072985;28;20131;-82
2024/01/05 02:11:40;;;;;;;17.83;12.18;;;;;;;7.27;82.75;98314.44;5073898;28;20043;-81
2024/01/05 02:14:07;;;;;;;18.80;11.77;;;;;;;7.28;82.88;98310.03;5073573;28;20110;-82
2024/01/05 02:16:34;;;;;;;17.20;11.80;;;;;;;7.28;82.91;98299.56;5066945;28;20128;-82
2024/01/05 02:19:00;;;;;;;15.68;11.32;;;;;;;7.29;82.50;98301.25;5054727;28;20091;-82
2024/01/05 02:21:32;;;;;;;16.30;11.57;;;;;;;7.28;82.69;98307.41;5055758;28;20555;-81
2024/01/05 02:23:59;;;;;;;18.52;11.38;;;;;;;7.28;82.31;98289.09;5073628;28;20479;-82
2024/01/05 02:26:26;;;;;;;15.80;10.52;;;;;;;7.27;82.64;98282.19;5055820;28;20121;-82
2024/01/05 02:28:53;;;;;;;18.17;10.48;;;;;;;7.25;82.77;98277.03;5073253;28;20099;-82
2024/01/05 02:31:19;;;;;;;13.27;9.45;;;;;;;7.23;82.48;98268.47;5073388;28;20106;-82
2024/01/05 02:33:46;;;;;;;11.48;8.45;;;;;;;7.23;82.97;98275.47;5055682;28;20191;-80
2024/01/05 02:36:13;;;;;;;11.18;8.52;;;;;;;7.22;82.64;98271.19;5073451;28;20452;-81
2024/01/05 02:38:39;;;;;;;11.25;8.45;;;;;;;7.22;83.04;98268.56;5073326;28;20099;-82
2024/01/05 02:41:06;;;;;;;14.88;8.70;;;;;;;7.23;83.10;98267.63;5073051;28;20136;-80
2024/01/05 02:43:33;;;;;;;10.70;8.30;;;;;;;7.24;83.22;98258.81;5055450;28;20048;-82
2024/01/05 02:45:59;;;;;;;11.13;8.35;;;;;;;7.25;82.89;98260.53;5073360;28;20048;-82
2024/01/05 02:48:26;;;;;;;11.43;8.75;;;;;;;7.27;83.17;98261.25;5072577;28;20099;-82
2024/01/05 02:50:53;;;;;;;11.70;8.35;;;;;;;7.29;82.91;98256.75;5072628;28;20489;-83
2024/01/05 02:53:19;;;;;;;11.27;8.05;;;;;;;7.29;83.17;98260.19;5072945;28;20520;-82
2024/01/05 02:55:46;;;;;;;14.05;8.55;;;;;;;7.31;82.90;98257.47;5072759;28;20444;-82
2024/01/05 02:58:12;;;;;;;12.55;8.35;;;;;;;7.31;83.03;98244.38;5072629;28;20068;-82
2024/01/05 03:00:38;;;;;;;10.70;8.75;;;;;;;7.31;82.87;98236.53;5072598;28;20091;-84
2024/01/05 03:03:05;;;;;;;11.48;8.80;;;;;;;7.32;82.57;98222.50;5072573;28;20052;-82
2024/01/05 03:05:32;;;;;;;12.90;9.40;;;;;;;7.32;82.73;98226.91;5072657;28;20060;-83
2024/01/05 03:07:59;;;;;;;12.57;9.30;;;;;;;7.32;82.86;98226.91;5050947;28;20123;-83
2024/01/05 03:10:25;;;;;;;12.35;9.25;;;;;;;7.31;83.17;98226.06;5052358;28;20452;-82
2024/01/05 03:12:52;;;;;;;14.55;10.02;;;;;;;7.31;83.08;98220.84;5052483;28;20045;-81
2024/01/05 03:15:18;;;;;;;11.75;9.25;;;;;;;7.32;83.13;98209.41;5034952;28;20057;-85
2024/01/05 03:17:46;;;;;;;12.05;9.80;;;;;;;7.32;83.22;98212.03;5051832;28;20057;-83
2024/01/05 03:20:14;;;;;;;13.88;10.13;;;;;;;7.32;83.18;98209.41;5071737;28;20064;-82
2024/01/05 03:22:41;;;;;;;13.60;10.23;;;;;;;7.33;83.34;98208.47;5072111;28;20406;-82
2024/01/05 03:25:08;;;;;;;13.10;9.98;;;;;;;7.35;83.61;98205.75;5072538;28;20048;-81
2024/01/05 03:27:34;;;;;;;13.85;10.57;;;;;;;7.37;83.69;98204.69;5072247;28;20079;-82
2024/01/05 03:30:01;;;;;;;15.18;10.80;;;;;;;7.38;83.62;98197.69;5071613;28;20052;-81
2024/01/05 03:32:28;;;;;;;15.20;10.68;;;;;;;7.40;83.66;98193.19;5071865;28;20155;-82
2024/01/05 03:34:54;;;;;;;16.48;10.93;;;;;;;7.43;83.49;98190.34;5072150;28;20102;-82
2024/01/05 03:37:21;;;;;;;16.23;11.57;;;;;;;7.44;83.68;98184.16;5071921;28;20131;-82
2024/01/05 03:39:47;;;;;;;16.75;11.18;;;;;;;7.46;83.66;98181.44;5053696;28;20475;-82
2024/01/05 03:42:15;;;;;;;16.08;11.18;;;;;;;7.48;83.43;98171.72;5071794;28;20049;-82
2024/01/05 03:44:41;;;;;;;15.50;11.50;;;;;;;7.48;83.59;98175.16;5054141;28;20056;-82
2024/01/05 03:47:08;;;;;;;18.65;11.27;;;;;;;7.50;83.46;98164.56;5071448;28;20045;-82
2024/01/05 03:49:36;;;;;;;17.58;11.90;;;;;;;7.52;83.63;98165.31;5071350;28;20651;-82
2024/01/05 03:52:03;;;;;;;16.23;11.60;;;;;;;7.53;83.51;98167.84;5071446;28;20098;-82
2024/01/05 03:54:30;;;;;;;17.50;12.55;;;;;;;7.55;83.49;98163.31;5071727;28;20052;-82
2024/01/05 03:56:56;;;;;;;20.60;12.10;;;;;;;7.57;83.78;98157.97;5071640;28;20059;-82
2024/01/05 03:59:23;;;;;;;16.85;11.98;;;;;;;7.59;83.48;98163.09;5071089;28;20062;-82
2024/01/05 04:01:49;;;;;;;17.10;12.50;;;;;;;7.61;83.62;98159.44;5053260;28;20444;-81
2024/01/05 04:04:16;;;;;;;18.55;12.80;;;;;;;7.63;83.87;98151.47;5053751;28;20511;-81
2024/01/05 04:06:44;;;;;;;19.20;12.45;;;;;;;7.65;83.73;98152.19;5053815;28;20044;-82
2024/01/05 04:09:11;;;;;;;20.05;12.95;;;;;;;7.66;83.57;98154.69;5053376;28;20118;-81
2024/01/05 04:11:38;;;;;;;16.23;12.13;;;;;;;7.67;83.50;98150.31;5053010;28;20412;-82
2024/01/05 04:14:06;;;;;;;16.95;12.45;;;;;;;7.68;83.70;98144.13;5071226;28;20044;-83
2024/01/05 04:16:32;;;;;;;16.85;12.18;;;;;;;7.70;83.60;98136.97;5071118;28;20137;-81
2024/01/05 04:18:59;;;;;;;22.40;12.77;;;;;;;7.72;83.35;98140.34;5071361;28;20131;-82
2024/01/05 04:21:26;;;;;;;17.52;12.60;;;;;;;7.74;83.53;98132.38;5070427;28;20102;-81
2024/01/05 04:23:57;;;;;;;16.15;11.77;;;;;;;7.73;83.46;98128.91;5071082;28;20059;-81
2024/01/05 04:26:23;;;;;;;18.33;12.55;;;;;;;7.76;83.73;98125.22;5053091;28;20075;-82
2024/01/05 04:28:50;;;;;;;15.77;11.82;;;;;;;7.77;83.68;98132.13;5052963;28;20052;-81
2024/01/05 04:31:16;;;;;;;18.27;12.43;;;;;;;7.77;83.09;98130.34;5070066;28;20048;-81
2024/01/05 04:33:43;;;;;;;19.00;12.38;;;;;;;7.79;83.52;98125.88;5053243;28;20048;-82
2024/01/05 04:36:10;;;;;;;17.52;12.15;;;;;;;7.79;83.41;98114.53;5070388;28;20051;-81
2024/01/05 04:38:37;;;;;;;18.05;11.60;;;;;;;7.80;83.40;98127.53;5070564;28;20063;-82
2024/01/05 04:41:04;;;;;;;17.48;11.95;;;;;;;7.81;83.40;98117.88;5070492;28;20467;-82
2024/01/05 04:43:30;;;;;;;22.08;12.73;;;;;;;7.82;83.60;98122.19;5052736;28;20052;-81
2024/01/05 04:45:57;;;;;;;18.23;12.95;;;;;;;7.83;83.39;98126.47;5070325;28;20449;-80
2024/01/05 04:48:23;;;;;;;16.42;11.73;;;;;;;7.85;83.80;98121.94;5070493;28;20068;-81
2024/01/05 04:50:51;;;;;;;21.33;12.88;;;;;;;7.88;83.49;98118.25;5070494;28;20258;-81
2024/01/05 04:53:17;;;;;;;16.30;11.55;;;;;;;7.90;83.49;98116.38;5070671;28;20052;-81
2024/01/05 04:55:44;;;;;;;19.48;11.13;;;;;;;7.90;83.62;98114.59;5070635;28;20139;-81
2024/01/05 04:58:10;;;;;;;17.05;11.15;;;;;;;7.93;83.57;98109.13;5069766;28;20496;-81
2024/01/05 05:00:36;;;;;;;22.42;11.77;;;;;;;7.94;83.81;98105.56;5052817;28;20075;-81
2024/01/05 05:03:03;;;;;;;17.80;11.13;;;;;;;7.95;83.65;98102.00;5070554;28;20056;-81
2024/01/05 05:05:31;;;;;;;15.88;10.80;;;;;;;7.97;83.78;98101.91;5070623;28;20056;-79
2024/01/05 05:07:58;;;;;;;16.33;10.27;;;;;;;8.00;83.46;98106.06;5070184;28;20103;-82
2024/01/05 05:10:24;;;;;;;15.75;10.95;;;;;;;8.02;83.24;98088.44;5070053;28;20054;-82
2024/01/05 05:12:51;;;;;;;15.93;10.32;;;;;;;8.04;83.17;98097.03;5070432;28;20500;-82
2024/01/05 05:15:17;;;;;;;16.90;11.00;;;;;;;8.04;83.38;98097.84;5070480;28;20584;-82
2024/01/05 05:17:44;;;;;;;17.58;10.18;;;;;;;8.06;82.95;98103.00;5069900;28;20052;-81
2024/01/05 05:20:11;;;;;;;16.63;11.05;;;;;;;8.06;82.62;98097.75;5070420;28;20056;-82
2024/01/05 05:22:38;;;;;;;21.45;11.55;;;;;;;8.06;82.71;98095.97;5070279;28;20480;-81
2024/01/05 05:25:05;;;;;;;20.58;11.50;;;;;;;8.06;82.73;98103.00;5052403;28;20060;-83
2024/01/05 05:27:33;;;;;;;14.73;10.93;;;;;;;8.06;82.95;98097.75;5070012;28;20059;-82
2024/01/05 05:30:04;;;;;;;16.55;11.73;;;;;;;8.04;83.00;98100.47;5070007;28;20153;-80
2024/01/05 05:32:31;;;;;;;19.52;12.57;;;;;;;8.04;82.77;98094.41;5052590;28;20084;-83
2024/01/05 05:34:58;;;;;;;17.90;12.40;;;;;;;8.04;82.87;98097.03;5052508;28;20041;-81
2024/01/05 05:37:24;;;;;;;19.13;13.18;;;;;;;8.04;83.15;98097.03;5052499;28;20133;-81
2024/01/05 05:39:52;;;;;;;19.02;12.52;;;;;;;8.04;83.02;98100.47;5069509;28;20157;-81
2024/01/05 05:42:18;;;;;;;24.77;13.68;;;;;;;8.04;83.19;98092.63;5073156;28;20102;-82
2024/01/05 05:44:45;;;;;;;19.95;13.95;;;;;;;8.04;83.11;98086.56;5074127;28;20053;-81
2024/01/05 05:47:11;;;;;;;21.00;13.27;;;;;;;8.04;83.01;98081.31;5074212;28;20084;-81
2024/01/05 05:49:38;;;;;;;21.05;13.25;;;;;;;8.04;82.81;98082.13;5073391;28;20139;-81
2024/01/05 05:52:05;;;;;;;24.30;14.25;;;;;;;8.03;83.01;98079.63;5073883;28;20416;-82
2024/01/05 05:54:32;;;;;;;17.63;12.50;;;;;;;8.04;83.03;98091.81;5074335;28;20052;-81
2024/01/05 05:56:58;;;;;;;18.77;12.13;;;;;;;8.05;83.17;98090.84;5073901;28;20415;-82
2024/01/05 05:59:25;;;;;;;18.60;12.57;;;;;;;8.05;83.17;98089.06;5073495;28;20102;-81
2024/01/05 06:01:51;;;;;;;18.50;12.57;;;;;;;8.06;83.26;98080.25;5055710;28;20496;-82
2024/01/05 06:04:18;;;;;;;18.33;11.88;;;;;;;8.07;83.55;98070.59;5073608;28;20382;-81
2024/01/05 06:06:46;;;;;;;15.52;10.68;;;;;;;8.11;83.36;98071.22;5073680;28;20505;-82
2024/01/05 06:11:45;;;;;;;12.48;8.48;;;;;;;8.16;83.99;98067.31;5043333;28;20440;-76
2024/01/05 06:14:12;;;;;;;15.70;7.43;;;;;;;8.20;84.06;98076.63;5054260;28;20115;-76
2024/01/05 06:16:39;;;;;;;14.85;6.80;;;;;;;8.24;84.39;98071.13;5036205;28;20048;-76
2024/01/05 06:19:05;;;;;;;11.95;5.75;;;;;;;8.27;84.53;98066.50;5036179;28;20053;-75
2024/01/05 06:21:32;;;;;;;17.40;6.00;;;;;;;8.32;84.54;98069.63;5048210;28;20045;-76
2024/01/05 06:23:59;;;;;;;9.50;5.57;;;;;;;8.38;84.39;98072.72;5034384;28;20056;-76
2024/01/05 06:26:26;;;;;;;9.68;5.65;;;;;;;8.43;84.59;98066.19;5052322;28;20561;-76
2024/01/05 06:28:52;;;;;;;13.30;5.07;;;;;;;8.50;84.32;98069.19;5053159;28;20140;-76
2024/01/05 06:31:19;;;;;;;11.55;5.63;;;;;;;8.53;84.10;98068.97;5052923;28;20452;-76
2024/01/05 06:33:46;;;;;;;10.07;5.55;;;;;;;8.58;84.10;98073.88;5044241;28;20072;-74
2024/01/05 06:36:12;;;;;;;12.63;6.38;;;;;;;8.62;83.69;98071.84;5053181;28;20430;-76
2024/01/05 06:38:39;;;;;;;13.48;5.72;;;;;;;8.65;83.60;98069.84;5053067;28;20148;-77
2024/01/05 06:41:05;;;;;;;11.57;5.70;;;;;;;8.68;83.71;98069.56;5052758;28;20417;-77
2024/01/05 06:43:32;;;;;;;13.23;5.82;;;;;;;8.70;83.88;98072.09;5048029;28;20128;-77
2024/01/05 06:45:58;;;;;;;11.55;5.22;;;;;;;8.71;83.42;98061.47;5049217;28;20087;-76
2024/01/05 06:48:25;;;;;;;12.27;5.13;;;;;;;8.74;83.62;98055.16;5035171;28;20059;-78
2024/01/05 06:50:51;;;;;;;10.57;5.50;;;;;;;8.78;83.72;98066.28;5035270;28;20066;-77
2024/01/05 06:53:18;;;;;;;11.65;4.68;;;;;;;8.80;83.55;98061.72;5051402;28;20540;-79
2024/01/05 06:55:45;;;;;;;12.38;4.32;;;;;;;8.84;83.41;98065.78;5033212;28;20073;-78
2024/01/05 06:58:11;;;;;;;9.65;3.80;;;;;;;8.85;83.44;98065.66;5032718;28;20453;-77
2024/01/05 07:00:38;;;;;;;8.65;3.75;;;;;;;8.88;83.57;98061.13;5032669;28;20077;-77
2024/01/05 07:03:05;;;;;;;7.55;3.60;;;;;;;8.91;83.56;98055.66;5015064;28;20056;-78
2024/01/05 07:05:31;;;;;;;8.70;3.42;;;;;;;8.93;83.52;98059.00;5040655;28;20124;-78
2024/01/05 07:07:58;;;;;;;6.43;2.67;;;;;;;8.97;83.56;98063.06;5032831;28;20478;-77
2024/01/05 07:10:25;;;;;;;11.65;3.13;;;;;;;8.98;83.50;98055.03;5014671;28;20045;-84
2024/01/05 07:12:52;;;;;;;8.38;2.58;;;;;;;8.99;83.41;98054.09;5032527;28;20050;-79
2024/01/05 07:15:18;;;;;;;8.40;2.75;;;;;;;9.04;83.42;98058.16;5021061;28;20046;-78
2024/01/05 07:17:45;;;;;;;8.35;2.60;;;;;;;9.06;83.19;98053.63;5034846;28;20053;-79
2024/01/05 07:20:12;;;;;;;11.93;3.08;;;;;;;9.07;83.47;98058.75;5034299;28;20143;-79
2024/01/05 07:22:39;;;;;;;10.73;2.50;;;;;;;9.09;83.50;98059.44;5052213;28;20058;-78
2024/01/05 07:25:09;;;;;;;8.27;2.90;;;;;;;9.12;83.57;98072.34;5046234;28;20674;-78
2024/01/05 07:27:36;;;;;;;7.30;2.40;;;;;;;9.15;83.51;98060.75;5046444;28;20100;-76
2024/01/05 07:30:04;;;;;;;10.52;2.80;;;;;;;9.16;83.55;98067.69;5031885;28;20057;-78
2024/01/05 07:32:31;;;;;;;9.50;2.50;;;;;;;9.18;83.52;98057.91;5032316;28;20149;-78
2024/01/05 07:34:58;;;;;;;8.90;2.88;;;;;;;9.22;83.37;98059.34;5032308;28;20100;-77
2024/01/05 07:37:24;;;;;;;9.88;2.70;;;;;;;9.25;83.50;98053.00;5040209;28;20056;-78
2024/01/05 07:39:51;;;;;;;9.05;2.45;;;;;;;9.26;83.15;98057.28;5031986;28;20068;-78
2024/01/05 07:42:17;;;;;;;5.32;2.05;;;;;;;9.29;83.12;98057.06;5032049;28;20140;-79
2024/01/05 07:44:44;;;;;;;9.52;2.70;;;;;;;9.31;83.01;98056.94;5032003;28;20045;-78
2024/01/05 07:47:11;;;;;;;10.43;2.88;;;;;;;9.31;83.08;98052.50;5039914;28;20049;-78
2024/01/05 07:49:37;;;;;;;12.02;2.30;;;;;;;9.33;82.71;98052.38;5031754;28;20154;-79
2024/01/05 07:52:04;;;;;;;9.50;2.65;;;;;;;9.35;83.03;98050.50;5014306;28;20049;-77
2024/01/05 07:54:31;;;;;;;6.90;2.38;;;;;;;9.35;82.93;98040.81;5031953;28;20131;-77
2024/01/05 07:56:57;;;;;;;7.70;3.13;;;;;;;9.36;82.60;98039.03;5031736;28;20541;-79
2024/01/05 07:59:24;;;;;;;7.85;2.33;;;;;;;9.37;82.44;98038.91;5050087;28;20505;-77
2024/01/05 08:01:54;;;;;;;8.55;2.33;;;;;;;9.38;82.61;98039.72;5051406;28;20115;-78
2024/01/05 08:04:20;;;;;;;9.45;2.40;;;;;;;9.39;82.59;98036.16;5050932;28;20088;-77
2024/01/05 08:06:47;;;;;;;11.73;2.78;;;;;;;9.39;82.71;98030.91;5030691;28;20045;-78
2024/01/05 08:09:15;;;;;;;6.75;2.42;;;;;;;9.41;82.73;98034.22;5028121;28;20497;-77
2024/01/05 08:11:42;;;;;;;7.45;2.80;;;;;;;9.43;82.81;98036.75;5042755;28;20045;-77
2024/01/05 08:14:09;;;;;;;7.28;2.42;;;;;;;9.44;82.88;98028.75;5031671;28;20049;-78
2024/01/05 08:16:36;;;;;;;8.15;2.17;;;;;;;9.46;82.71;98023.38;5031572;28;20057;-77
2024/01/05 08:19:02;;;;;;;3.95;2.00;;;;;;;9.48;82.88;98027.53;5041736;28;20061;-78
2024/01/05 08:21:30;;;;;;;11.73;3.33;;;;;;;9.51;82.75;98022.06;5018666;28;20051;-80
2024/01/05 08:23:56;;;;;;;6.47;2.20;;;;;;;9.51;82.56;98011.53;5031221;28;20049;-78
2024/01/05 08:26:23;;;;;;;5.55;2.38;;;;;;;9.54;82.28;98006.97;5013560;28;20061;-79
2024/01/05 08:28:50;;;;;;;3.60;1.92;;;;;;;9.54;82.57;98007.84;5038493;28;20057;-80
2024/01/05 08:31:17;;;;;;;6.00;2.17;;;;;;;9.56;82.57;98012.94;5013502;28;20060;-78
2024/01/05 08:33:43;;;;;;;7.30;2.20;;;;;;;9.57;82.58;98012.00;5031016;28;20053;-78
2024/01/05 08:36:10;;;;;;;9.55;2.47;;;;;;;9.58;82.54;98011.88;5031215;28;20164;-79
2024/01/05 08:38:37;;;;;;;6.22;2.40;;;;;;;9.60;82.64;98019.59;5038141;28;20040;-77
2024/01/05 08:41:03;;;;;;;5.90;1.90;;;;;;;9.61;82.63;98008.97;5031018;28;20410;-78
2024/01/05 08:43:30;;;;;;;8.32;1.88;;;;;;;9.63;82.54;98011.47;5031040;28;20103;-78
2024/01/05 08:45:57;;;;;;;10.50;2.38;;;;;;;9.64;82.49;98011.38;5030982;28;20049;-82
2024/01/05 08:48:23;;;;;;;9.35;2.20;;;;;;;9.66;82.49;98006.00;5015958;28;20053;-78
2024/01/05 08:50:51;;;;;;;8.68;2.08;;;;;;;9.67;82.36;98009.44;5050144;28;20049;-77
2024/01/05 08:53:19;;;;;;;9.55;2.42;;;;;;;9.68;82.23;98014.56;5050470;28;20052;-78
2024/01/05 08:55:46;;;;;;;6.43;2.22;;;;;;;9.70;82.44;98017.91;5050614;28;20136;-78
2024/01/05 08:58:13;;;;;;;7.93;2.30;;;;;;;9.72;82.42;98018.63;5050754;28;20175;-78
2024/01/05 09:00:40;;;;;;;6.85;2.47;;;;;;;9.74;82.55;98014.09;5041362;28;20080;-78
2024/01/05 09:03:07;;;;;;;8.88;2.42;;;;;;;9.74;82.54;98014.09;5032805;28;20136;-79
2024/01/05 09:05:34;;;;;;;8.10;2.20;;;;;;;9.77;82.49;98010.38;5050345;28;20053;-78
2024/01/05 09:08:00;;;;;;;11.60;2.30;;;;;;;9.80;82.20;98011.91;5032521;28;20405;-78
2024/01/05 09:10:27;;;;;;;4.85;1.98;;;;;;;9.81;82.56;98010.94;5041024;28;20139;-78
2024/01/05 09:12:53;;;;;;;8.48;2.25;;;;;;;9.83;82.43;98007.22;5050228;28;20451;-77
2024/01/05 09:15:22;;;;;;;8.73;2.63;;;;;;;9.85;82.31;98009.72;5033636;28;20107;-77
2024/01/05 09:17:49;;;;;;;7.05;2.13;;;;;;;9.86;82.47;98009.59;5030453;28;20048;-77
2024/01/05 09:20:15;;;;;;;4.55;1.98;;;;;;;9.87;82.45;98013.09;5012838;28;20072;-78
2024/01/05 09:22:43;;;;;;;10.55;3.25;;;;;;;9.89;82.34;98016.41;5030836;28;20050;-78
2024/01/05 09:25:09;;;;;;;7.18;2.40;;;;;;;9.90;82.40;98013.66;5020792;28;20052;-78
2024/01/05 09:27:36;;;;;;;8.27;2.63;;;;;;;9.93;82.41;98015.19;5030688;28;20128;-78
2024/01/05 09:30:03;;;;;;;5.68;1.80;;;;;;;9.94;82.12;98008.16;5012738;28;20140;-78
2024/01/05 09:32:30;;;;;;;8.38;2.40;;;;;;;9.96;82.18;98011.47;5030434;28;20049;-78
2024/01/05 09:34:57;;;;;;;7.18;2.00;;;;;;;9.96;82.10;98020.19;5037296;28;20132;-77
2024/01/05 09:37:24;;;;;;;9.55;2.90;;;;;;;9.97;82.15;98016.59;5031236;28;20815;-79
2024/01/05 09:39:50;;;;;;;6.85;1.83;;;;;;;9.98;82.25;98012.19;5030340;28;20081;-78
2024/01/05 09:42:17;;;;;;;8.38;2.33;;;;;;;9.99;82.26;98009.41;5037689;28;20084;-78
2024/01/05 09:44:46;;;;;;;6.93;2.00;;;;;;;10.00;81.96;98008.47;5038011;28;20058;-77
2024/01/05 09:47:14;;;;;;;5.82;1.95;;;;;;;10.02;82.02;98005.72;5050072;28;20074;-78
2024/01/05 09:49:44;;;;;;;9.02;2.22;;;;;;;10.03;81.98;98007.38;5050338;28;20115;-78
2024/01/05 09:52:12;;;;;;;8.52;2.15;;;;;;;10.04;81.96;98009.03;5024964;28;20064;-78
2024/01/05 09:54:39;;;;;;;9.02;1.85;;;;;;;10.06;82.13;98014.19;5032072;28;20057;-77
2024/01/05 09:57:09;;;;;;;4.22;1.92;;;;;;;10.06;82.02;98006.28;5050348;28;20056;-78
2024/01/05 09:59:37;;;;;;;6.53;1.98;;;;;;;10.08;82.35;98005.19;5045220;28;20474;-78
2024/01/05 10:02:12;;;;;;;7.97;2.00;;;;;;;10.11;81.15;98017.25;5042096;28;20136;-78
2024/01/05 10:04:39;;;;;;;7.47;1.83;;;;;;;10.16;82.69;98001.91;5050317;28;20087;-77
2024/01/05 10:07:05;;;;;;;5.85;1.67;;;;;;;10.21;82.71;98004.19;5050130;28;20053;-79
2024/01/05 10:09:32;;;;;;;6.07;2.13;;;;;;;10.25;82.95;97998.50;5032037;28;20498;-77
2024/01/05 10:11:58;;;;;;;7.10;2.13;;;;;;;10.30;82.69;98003.41;5049812;28;20053;-78
2024/01/05 10:14:28;;;;;;;5.15;1.73;;;;;;;10.35;82.60;98006.47;5056540;28;20768;-78
2024/01/05 10:17:08;;;;;;;5.43;2.08;;;;;;;10.35;80.36;98000.41;5032093;28;20140;-78
2024/01/05 10:19:35;;;;;;;4.97;1.92;;;;;;;10.41;82.04;98005.97;5050031;28;20045;-78
2024/01/05 10:22:13;;;;;;;8.63;2.30;;;;;;;10.39;79.44;98001.81;5032163;28;20152;-79
2024/01/05 10:24:41;;;;;;;5.97;1.48;;;;;;;10.42;81.13;98005.00;5013520;28;20054;-78
2024/01/05 10:27:10;;;;;;;5.10;1.50;;;;;;;10.42;81.02;97991.84;5047778;28;20048;-78
2024/01/05 10:29:42;;;;;;;3.65;1.42;;;;;;;10.43;81.46;97987.41;5049430;28;20060;-78
2024/01/05 10:32:12;;;;;;;5.85;1.85;;;;;;;10.45;81.93;97990.78;5036048;28;20044;-78
2024/01/05 10:34:43;;;;;;;4.20;1.52;;;;;;;10.44;80.30;97994.38;5053157;28;20053;-77
2024/01/05 10:37:10;;;;;;;4.45;1.60;;;;;;;10.47;81.61;97983.56;5053191;28;20049;-78
2024/01/05 10:39:37;;;;;;;5.95;1.77;;;;;;;10.49;81.75;97979.03;5044237;28;20446;-80
2024/01/05 10:42:22;;;;;;;4.75;1.85;;;;;;;10.47;79.25;97970.41;5023479;28;20053;-79
2024/01/05 10:44:53;;;;;;;6.03;1.50;;;;;;;10.52;81.07;97981.41;5032944;28;20046;-76
2024/01/05 10:47:25;;;;;;;4.20;1.58;;;;;;;10.52;80.31;97980.56;5033230;28;20041;-80
2024/01/05 10:49:55;;;;;;;6.88;1.73;;;;;;;10.54;80.67;97991.78;5022259;28;20437;-78
2024/01/05 10:52:25;;;;;;;4.15;2.03;;;;;;;10.51;80.20;97978.91;5033208;28;20077;-78
2024/01/05 10:54:52;;;;;;;6.40;1.52;;;;;;;10.46;79.41;97979.28;5040530;28;20136;-79
2024/01/05 10:57:20;;;;;;;4.75;1.30;;;;;;;10.43;79.23;97987.41;5033071;28;20541;-78
2024/01/05 10:59:49;;;;;;;3.15;1.30;;;;;;;10.39;79.13;97968.41;5032855;28;20050;-77
2024/01/05 11:02:25;;;;;;;6.72;1.40;;;;;;;10.35;77.42;97979.34;5032763;28;20451;-78
2024/01/05 11:05:07;;;;;;;5.47;1.77;;;;;;;10.29;77.59;97973.63;5047808;28;20136;-79
2024/01/05 11:07:37;;;;;;;5.05;1.52;;;;;;;10.32;78.38;97980.41;5052835;28;20089;-80
2024/01/05 11:10:19;;;;;;;4.15;1.30;;;;;;;10.34;79.73;97980.28;5052519;28;20057;-79
2024/01/05 11:13:03;;;;;;;5.50;1.50;;;;;;;10.32;79.85;97983.06;5052544;28;20103;-78
2024/01/05 11:15:51;;;;;;;4.45;1.15;;;;;;;10.27;78.14;97977.34;5046581;28;20461;-79
2024/01/05 11:19:06;;;;;;;3.72;1.45;;;;;;;10.25;77.72;97976.66;5032876;28;20053;-77
2024/01/05 11:21:42;;;;;;;3.63;1.40;;;;;;;10.28;79.21;97979.84;5023245;28;20057;-78
2024/01/05 11:24:11;;;;;;;4.93;1.48;;;;;;;10.27;79.94;97983.47;5010777;28;20049;-78
2024/01/05 11:26:42;;;;;;;4.38;1.92;;;;;;;10.25;79.50;97981.91;5037183;28;20053;-77
2024/01/05 11:29:12;;;;;;;6.20;2.03;;;;;;;10.21;78.70;97985.78;5024837;28;20545;-79
2024/01/05 11:31:45;;;;;;;4.22;1.83;;;;;;;10.17;78.51;97986.03;5032555;28;20049;-78
2024/01/05 11:34:31;;;;;;;4.35;1.55;;;;;;;10.13;77.49;97981.97;5033307;28;20119;-78
2024/01/05 11:36:58;;;;;;;3.80;1.55;;;;;;;10.16;80.17;97988.78;5052599;28;20045;-77